createdAt,value
2018-03-25T00:00:06.385Z,52.18
2018-03-25T00:01:43.539Z,52.18
2018-03-25T00:03:21.166Z,52.17
2018-03-25T00:04:58.966Z,52.18
2018-03-25T00:06:36.252Z,52.18
2018-03-25T00:08:13.634Z,52.17
2018-03-25T00:09:51.398Z,52.14
2018-03-25T00:11:29.284Z,52.09
2018-03-25T00:13:06.648Z,52.03
2018-03-25T00:14:43.799Z,52.01
2018-03-25T00:16:21.246Z,52.02
2018-03-25T00:17:59.016Z,52.01
2018-03-25T00:19:36.291Z,52.02
2018-03-25T00:21:13.304Z,52.03
2018-03-25T00:22:50.857Z,52.06
2018-03-25T00:24:28.449Z,52.09
2018-03-25T00:26:08.190Z,52.11
2018-03-25T00:27:47.053Z,52.10
2018-03-25T00:29:25.029Z,52.08
2018-03-25T00:31:03.046Z,52.05
2018-03-25T00:32:40.483Z,52.04
2018-03-25T00:34:18.283Z,52.02
2018-03-25T00:35:56.615Z,51.99
2018-03-25T00:37:35.575Z,51.95
2018-03-25T00:39:14.853Z,51.90
2018-03-25T00:40:52.979Z,51.83
2018-03-25T00:42:30.794Z,51.81
2018-03-25T00:44:09.333Z,51.78
2018-03-25T00:45:47.259Z,51.77
2018-03-25T00:47:24.522Z,51.77
2018-03-25T00:49:02.695Z,51.78
2018-03-25T00:50:41.588Z,51.77
2018-03-25T00:52:19.055Z,51.76
2018-03-25T00:53:56.500Z,51.77
2018-03-25T00:55:34.532Z,51.78
2018-03-25T00:57:11.815Z,51.81
2018-03-25T00:58:50.034Z,51.84
2018-03-25T01:00:33.746Z,51.83
2018-03-25T01:02:11.765Z,51.77
2018-03-25T01:03:49.848Z,51.72
2018-03-25T01:05:27.366Z,51.67
2018-03-25T01:07:05.116Z,51.62
2018-03-25T01:08:43.182Z,51.62
2018-03-25T01:10:21.070Z,51.63
2018-03-25T01:11:59.532Z,51.65
2018-03-25T01:13:37.125Z,51.63
2018-03-25T01:15:16.671Z,51.59
2018-03-25T01:16:54.927Z,51.55
2018-03-25T01:18:32.568Z,51.52
2018-03-25T01:20:10.139Z,51.52
2018-03-25T01:21:47.720Z,51.51
2018-03-25T01:23:25.432Z,51.49
2018-03-25T01:25:03.272Z,51.50
2018-03-25T01:26:41.924Z,51.52
2018-03-25T01:28:19.490Z,51.53
2018-03-25T01:29:57.450Z,51.56
2018-03-25T01:31:36.286Z,51.60
2018-03-25T01:33:13.939Z,51.64
2018-03-25T01:34:51.840Z,51.67
2018-03-25T01:36:29.936Z,51.67
2018-03-25T01:38:07.605Z,51.66
2018-03-25T01:39:45.263Z,51.64
2018-03-25T01:41:22.907Z,51.60
2018-03-25T01:43:01.259Z,51.57
2018-03-25T01:44:38.836Z,51.51
2018-03-25T01:46:17.531Z,51.46
2018-03-25T01:47:55.967Z,51.43
2018-03-25T01:49:33.923Z,51.41
2018-03-25T01:51:11.577Z,51.42
2018-03-25T01:52:49.505Z,51.44
2018-03-25T01:54:28.334Z,51.44
2018-03-25T01:56:07.164Z,51.43
2018-03-25T01:57:44.972Z,51.41
2018-03-25T01:59:22.524Z,51.41
2018-03-25T02:01:00.601Z,51.41
2018-03-25T02:02:38.501Z,51.40
2018-03-25T02:04:16.926Z,51.41
2018-03-25T02:05:54.672Z,51.41
2018-03-25T02:07:33.255Z,51.41
2018-03-25T02:09:11.557Z,51.41
2018-03-25T02:10:49.475Z,51.41
2018-03-25T02:12:27.207Z,51.42
2018-03-25T02:14:06.174Z,51.44
2018-03-25T02:15:44.786Z,51.48
2018-03-25T02:17:22.491Z,51.52
2018-03-25T02:19:00.157Z,51.55
2018-03-25T02:20:38.312Z,51.57
2018-03-25T02:22:17.292Z,51.60
2018-03-25T02:23:55.289Z,51.61
2018-03-25T02:25:32.956Z,51.65
2018-03-25T02:27:10.864Z,51.67
2018-03-25T02:28:49.255Z,51.70
2018-03-25T02:30:28.755Z,51.74
2018-03-25T02:32:08.287Z,51.75
2018-03-25T02:33:45.784Z,51.76
2018-03-25T02:35:25.003Z,51.79
2018-03-25T02:37:02.549Z,51.80
2018-03-25T02:38:40.559Z,51.81
2018-03-25T02:40:19.361Z,51.81
2018-03-25T02:41:57.320Z,51.80
2018-03-25T02:43:35.256Z,51.78
2018-03-25T02:45:12.884Z,51.76
2018-03-25T02:46:53.452Z,51.75
2018-03-25T02:48:31.586Z,51.73
2018-03-25T02:50:08.945Z,51.71
2018-03-25T02:51:46.879Z,51.70
2018-03-25T02:53:25.094Z,51.68
2018-03-25T02:55:03.440Z,51.69
2018-03-25T02:56:42.732Z,51.70
2018-03-25T02:58:20.501Z,51.70
2018-03-25T02:59:58.790Z,51.72
2018-03-25T03:01:37.945Z,51.74
2018-03-25T03:03:17.356Z,51.74
2018-03-25T03:04:56.418Z,51.75
2018-03-25T03:06:33.978Z,51.76
2018-03-25T03:08:12.882Z,51.78
2018-03-25T03:09:50.503Z,51.78
2018-03-25T03:11:27.746Z,51.79
2018-03-25T03:13:06.016Z,51.79
2018-03-25T03:14:43.487Z,51.80
2018-03-25T03:16:22.318Z,51.81
2018-03-25T03:18:00.665Z,51.82
2018-03-25T03:19:39.067Z,51.83
2018-03-25T03:21:16.848Z,51.83
2018-03-25T03:22:55.353Z,51.84
2018-03-25T03:24:39.098Z,51.83
2018-03-25T03:26:17.303Z,51.84
2018-03-25T03:27:55.586Z,51.86
2018-03-25T03:29:33.416Z,51.87
2018-03-25T03:31:11.914Z,51.90
2018-03-25T03:32:49.304Z,51.91
2018-03-25T03:34:27.134Z,51.92
2018-03-25T03:36:05.191Z,51.91
2018-03-25T03:37:42.618Z,51.91
2018-03-25T03:39:20.678Z,51.89
2018-03-25T03:40:59.389Z,51.89
2018-03-25T03:42:36.704Z,51.88
2018-03-25T03:44:14.030Z,51.87
2018-03-25T03:45:51.713Z,51.86
2018-03-25T03:47:29.818Z,51.86
2018-03-25T03:49:06.951Z,51.84
2018-03-25T03:50:44.834Z,51.83
2018-03-25T03:52:22.338Z,51.82
2018-03-25T03:53:59.708Z,51.81
2018-03-25T03:55:37.121Z,51.80
2018-03-25T03:57:14.865Z,51.79
2018-03-25T03:58:52.116Z,51.77
2018-03-25T04:00:31.710Z,51.76
2018-03-25T04:02:08.932Z,51.75
2018-03-25T04:03:46.116Z,51.76
2018-03-25T04:05:23.946Z,51.75
2018-03-25T04:08:45.240Z,51.75
2018-03-25T04:10:22.237Z,51.74
2018-03-25T04:11:59.380Z,51.74
2018-03-25T04:13:37.201Z,51.74
2018-03-25T04:15:16.954Z,51.75
2018-03-25T04:16:54.666Z,51.76
2018-03-25T04:18:31.856Z,51.76
2018-03-25T04:20:09.545Z,51.77
2018-03-25T04:21:46.839Z,51.77
2018-03-25T04:23:24.087Z,51.77
2018-03-25T04:25:01.178Z,51.74
2018-03-25T04:26:38.985Z,51.71
2018-03-25T04:28:16.733Z,51.65
2018-03-25T04:29:53.892Z,51.58
2018-03-25T04:31:31.102Z,51.55
2018-03-25T04:33:08.936Z,51.51
2018-03-25T04:34:46.779Z,51.49
2018-03-25T04:36:24.232Z,51.50
2018-03-25T04:38:01.610Z,51.50
2018-03-25T04:39:39.854Z,51.50
2018-03-25T04:41:16.937Z,51.52
2018-03-25T04:42:54.503Z,51.54
2018-03-25T04:44:34.821Z,51.54
2018-03-25T04:46:13.169Z,51.57
2018-03-25T04:47:49.932Z,51.59
2018-03-25T04:49:28.517Z,51.61
2018-03-25T04:51:06.649Z,51.61
2018-03-25T04:52:43.679Z,51.62
2018-03-25T04:54:22.051Z,51.64
2018-03-25T04:55:59.115Z,51.65
2018-03-25T04:57:36.027Z,51.67
2018-03-25T04:59:14.406Z,51.68
2018-03-25T05:00:52.104Z,51.70
2018-03-25T05:02:29.548Z,51.70
2018-03-25T05:04:06.951Z,51.72
2018-03-25T05:05:44.183Z,51.74
2018-03-25T05:07:21.202Z,51.74
2018-03-25T05:08:59.050Z,51.75
2018-03-25T05:10:36.679Z,51.76
2018-03-25T05:12:13.745Z,51.78
2018-03-25T05:13:51.055Z,51.80
2018-03-25T05:15:29.883Z,51.82
2018-03-25T05:17:06.932Z,51.82
2018-03-25T05:18:44.797Z,51.81
2018-03-25T05:20:21.874Z,51.80
2018-03-25T05:21:59.383Z,51.80
2018-03-25T05:23:36.497Z,51.79
2018-03-25T05:25:14.000Z,51.79
2018-03-25T05:26:51.315Z,51.80
2018-03-25T05:28:28.475Z,51.79
2018-03-25T05:30:06.912Z,51.74
2018-03-25T05:31:44.196Z,51.80
2018-03-25T05:33:22.098Z,51.83
2018-03-25T05:35:00.329Z,51.86
2018-03-25T05:36:37.286Z,51.86
2018-03-25T05:38:15.366Z,51.86
2018-03-25T05:39:53.140Z,51.85
2018-03-25T05:41:37.526Z,51.83
2018-03-25T05:43:17.067Z,51.83
2018-03-25T05:44:54.669Z,51.82
2018-03-25T05:46:32.434Z,51.83
2018-03-25T05:48:10.915Z,51.82
2018-03-25T05:49:48.782Z,51.80
2018-03-25T05:51:26.732Z,51.78
2018-03-25T05:53:04.189Z,51.75
2018-03-25T05:54:42.032Z,51.73
2018-03-25T05:56:19.501Z,51.73
2018-03-25T05:57:57.675Z,51.74
2018-03-25T05:59:35.735Z,51.75
2018-03-25T06:01:13.617Z,51.75
2018-03-25T06:02:51.311Z,51.75
2018-03-25T06:04:30.067Z,51.79
2018-03-25T06:06:09.267Z,51.83
2018-03-25T06:07:47.147Z,51.85
2018-03-25T06:09:25.139Z,51.85
2018-03-25T06:11:03.262Z,51.86
2018-03-25T06:12:41.055Z,51.90
2018-03-25T06:14:19.397Z,51.94
2018-03-25T06:15:58.059Z,51.98
2018-03-25T06:17:37.300Z,52.03
2018-03-25T06:19:14.888Z,52.09
2018-03-25T06:20:52.814Z,52.11
2018-03-25T06:22:31.466Z,52.14
2018-03-25T06:24:11.458Z,52.18
2018-03-25T06:25:50.181Z,52.23
2018-03-25T06:27:28.021Z,52.26
2018-03-25T06:29:06.342Z,52.25
2018-03-25T06:30:45.291Z,52.20
2018-03-25T06:32:22.854Z,52.15
2018-03-25T06:34:01.881Z,52.12
2018-03-25T06:35:39.578Z,52.07
2018-03-25T06:37:17.280Z,52.00
2018-03-25T06:38:55.118Z,51.96
2018-03-25T06:40:33.246Z,51.90
2018-03-25T06:42:11.436Z,51.87
2018-03-25T06:43:49.558Z,51.85
2018-03-25T06:45:29.153Z,51.85
2018-03-25T06:47:07.067Z,51.86
2018-03-25T06:48:45.506Z,51.87
2018-03-25T06:50:23.302Z,51.85
2018-03-25T06:52:01.017Z,51.82
2018-03-25T06:53:38.603Z,51.79
2018-03-25T06:55:16.411Z,51.76
2018-03-25T06:56:54.343Z,51.77
2018-03-25T06:58:32.234Z,51.75
2018-03-25T07:00:09.960Z,51.75
2018-03-25T07:01:48.247Z,51.74
2018-03-25T07:03:26.030Z,51.75
2018-03-25T07:05:03.897Z,51.77
2018-03-25T07:06:42.129Z,51.82
2018-03-25T07:08:21.168Z,51.85
2018-03-25T07:09:58.665Z,51.89
2018-03-25T07:11:36.331Z,51.96
2018-03-25T07:13:14.301Z,52.02
2018-03-25T07:14:54.004Z,52.08
2018-03-25T07:16:32.908Z,52.13
2018-03-25T07:18:11.185Z,52.22
2018-03-25T07:19:48.917Z,52.30
2018-03-25T07:21:26.875Z,52.34
2018-03-25T07:23:04.814Z,52.36
2018-03-25T07:24:42.816Z,52.39
2018-03-25T07:26:20.606Z,52.43
2018-03-25T07:27:59.072Z,52.43
2018-03-25T07:29:43.447Z,52.42
2018-03-25T07:31:22.116Z,52.39
2018-03-25T07:32:59.976Z,52.39
2018-03-25T07:34:37.936Z,52.43
2018-03-25T07:36:15.596Z,52.41
2018-03-25T07:37:53.231Z,52.46
2018-03-25T07:39:34.337Z,52.46
2018-03-25T07:41:13.369Z,52.50
2018-03-25T07:42:50.942Z,52.58
2018-03-25T07:44:28.363Z,52.57
2018-03-25T07:46:06.545Z,52.54
2018-03-25T07:47:45.256Z,52.52
2018-03-25T07:49:23.551Z,52.55
2018-03-25T07:51:00.970Z,52.60
2018-03-25T07:52:38.399Z,52.66
2018-03-25T07:54:16.479Z,52.71
2018-03-25T07:55:53.898Z,52.79
2018-03-25T07:57:32.163Z,52.87
2018-03-25T07:59:10.201Z,52.94
2018-03-25T08:00:50.588Z,53.00
2018-03-25T08:02:27.866Z,52.98
2018-03-25T08:04:05.567Z,52.96
2018-03-25T08:05:43.290Z,53.01
2018-03-25T08:07:20.730Z,53.06
2018-03-25T08:08:58.961Z,53.10
2018-03-25T08:10:36.345Z,53.14
2018-03-25T08:12:14.730Z,53.17
2018-03-25T08:13:52.114Z,53.20
2018-03-25T08:15:30.420Z,53.09
2018-03-25T08:17:08.008Z,53.00
2018-03-25T08:18:45.564Z,52.94
2018-03-25T08:20:22.872Z,52.89
2018-03-25T08:22:00.228Z,52.91
2018-03-25T08:23:37.629Z,52.97
2018-03-25T08:25:16.206Z,52.96
2018-03-25T08:26:53.437Z,52.93
2018-03-25T08:28:31.098Z,52.82
2018-03-25T08:30:08.415Z,52.78
2018-03-25T08:31:46.601Z,52.83
2018-03-25T08:33:24.612Z,52.90
2018-03-25T08:35:01.942Z,52.99
2018-03-25T08:36:39.732Z,53.05
2018-03-25T08:38:17.992Z,53.10
2018-03-25T08:39:55.248Z,53.10
2018-03-25T08:41:32.638Z,53.12
2018-03-25T08:43:10.920Z,53.08
2018-03-25T08:44:48.585Z,53.04
2018-03-25T08:46:26.124Z,53.00
2018-03-25T08:48:04.060Z,53.00
2018-03-25T08:49:41.905Z,53.03
2018-03-25T08:51:19.711Z,53.09
2018-03-25T08:52:56.869Z,53.18
2018-03-25T08:54:34.639Z,53.21
2018-03-25T08:56:11.804Z,53.19
2018-03-25T08:57:49.252Z,53.16
2018-03-25T08:59:26.612Z,53.17
2018-03-25T09:01:03.876Z,53.20
2018-03-25T09:02:42.537Z,53.16
2018-03-25T09:04:22.169Z,53.08
2018-03-25T09:05:59.668Z,53.06
2018-03-25T09:07:37.287Z,53.12
2018-03-25T09:09:23.495Z,53.13
2018-03-25T09:11:01.795Z,53.18
2018-03-25T09:12:40.329Z,53.21
2018-03-25T09:14:17.824Z,53.24
2018-03-25T09:15:55.241Z,53.23
2018-03-25T09:17:32.990Z,53.26
2018-03-25T09:19:10.466Z,53.22
2018-03-25T09:20:48.639Z,53.17
2018-03-25T09:22:26.922Z,53.09
2018-03-25T09:24:04.683Z,53.09
2018-03-25T09:25:46.746Z,53.13
2018-03-25T09:27:24.768Z,53.18
2018-03-25T09:29:02.501Z,53.22
2018-03-25T09:30:40.553Z,53.23
2018-03-25T09:32:18.054Z,53.27
2018-03-25T09:33:55.901Z,53.28
2018-03-25T09:35:32.789Z,53.23
2018-03-25T09:37:10.463Z,53.22
2018-03-25T09:38:48.528Z,53.22
2018-03-25T09:40:26.007Z,53.22
2018-03-25T09:42:03.166Z,53.25
2018-03-25T09:43:40.956Z,53.28
2018-03-25T09:45:19.830Z,53.31
2018-03-25T09:46:57.325Z,53.32
2018-03-25T09:48:34.773Z,53.33
2018-03-25T09:50:12.259Z,53.35
2018-03-25T09:51:50.014Z,53.35
2018-03-25T09:53:27.974Z,53.37
2018-03-25T09:55:05.347Z,53.30
2018-03-25T09:56:42.734Z,53.27
2018-03-25T09:58:20.129Z,53.28
2018-03-25T09:59:57.911Z,53.31
2018-03-25T10:01:36.628Z,53.33
2018-03-25T10:03:17.257Z,53.33
2018-03-25T10:04:54.440Z,53.32
2018-03-25T10:06:32.270Z,53.28
2018-03-25T10:08:09.488Z,53.30
2018-03-25T10:09:47.162Z,53.31
2018-03-25T10:11:25.507Z,53.34
2018-03-25T10:13:04.072Z,53.29
2018-03-25T10:14:41.141Z,53.21
2018-03-25T10:16:20.283Z,53.15
2018-03-25T10:17:57.480Z,53.10
2018-03-25T10:19:34.440Z,53.06
2018-03-25T10:21:12.711Z,53.03
2018-03-25T10:22:50.411Z,52.98
2018-03-25T10:24:28.247Z,52.96
2018-03-25T10:26:05.468Z,52.92
2018-03-25T10:27:42.535Z,52.91
2018-03-25T10:29:20.406Z,52.95
2018-03-25T10:30:57.634Z,52.99
2018-03-25T10:32:35.025Z,53.02
2018-03-25T10:34:12.254Z,53.04
2018-03-25T10:35:49.774Z,53.07
2018-03-25T10:37:27.450Z,53.05
2018-03-25T10:39:04.831Z,53.03
2018-03-25T10:40:42.987Z,53.02
2018-03-25T10:42:20.112Z,53.00
2018-03-25T10:43:57.064Z,53.00
2018-03-25T10:45:34.519Z,53.00
2018-03-25T10:47:11.587Z,52.99
2018-03-25T10:48:50.126Z,53.01
2018-03-25T10:50:28.029Z,53.01
2018-03-25T10:52:05.433Z,53.03
2018-03-25T10:53:42.428Z,53.04
2018-03-25T10:55:20.718Z,53.04
2018-03-25T10:56:57.970Z,53.03
2018-03-25T10:58:36.041Z,53.04
2018-03-25T11:00:13.193Z,53.03
2018-03-25T11:01:53.019Z,53.03
2018-03-25T11:03:30.907Z,53.00
2018-03-25T11:05:08.017Z,52.99
2018-03-25T11:06:48.426Z,52.95
2018-03-25T11:08:26.650Z,52.96
2018-03-25T11:10:03.724Z,52.93
2018-03-25T11:11:41.630Z,52.90
2018-03-25T11:13:18.700Z,52.86
2018-03-25T11:14:57.217Z,52.80
2018-03-25T11:16:34.460Z,52.76
2018-03-25T11:18:11.587Z,52.75
2018-03-25T11:19:49.573Z,52.74
2018-03-25T11:21:28.310Z,52.75
2018-03-25T11:23:06.018Z,52.71
2018-03-25T11:24:43.467Z,52.73
2018-03-25T11:26:20.430Z,52.69
2018-03-25T11:27:57.589Z,52.66
2018-03-25T11:29:34.700Z,52.64
2018-03-25T11:31:12.385Z,52.62
2018-03-25T11:32:49.501Z,52.60
2018-03-25T11:34:29.947Z,52.58
2018-03-25T11:36:09.693Z,52.58
2018-03-25T11:37:47.912Z,52.57
2018-03-25T11:39:26.215Z,52.56
2018-03-25T11:41:04.873Z,52.55
2018-03-25T11:42:43.583Z,52.54
2018-03-25T11:44:23.851Z,52.52
2018-03-25T11:46:03.142Z,52.49
2018-03-25T11:47:40.689Z,52.47
2018-03-25T11:49:17.687Z,52.46
2018-03-25T11:50:54.868Z,52.46
2018-03-25T11:52:32.058Z,52.47
2018-03-25T11:54:09.572Z,52.45
2018-03-25T11:55:48.423Z,52.44
2018-03-25T11:57:25.772Z,52.39
2018-03-25T11:59:02.972Z,52.35
2018-03-25T12:00:42.924Z,52.34
2018-03-25T12:02:20.506Z,52.32
2018-03-25T12:03:57.965Z,52.27
2018-03-25T12:05:35.260Z,52.22
2018-03-25T12:07:12.717Z,52.21
2018-03-25T12:08:49.667Z,52.18
2018-03-25T12:10:27.696Z,52.14
2018-03-25T12:12:05.773Z,52.16
2018-03-25T12:13:43.229Z,52.16
2018-03-25T12:15:21.468Z,52.16
2018-03-25T12:16:59.483Z,52.17
2018-03-25T12:18:37.103Z,52.13
2018-03-25T12:20:14.362Z,52.09
2018-03-25T12:21:51.396Z,52.07
2018-03-25T12:23:29.034Z,52.05
2018-03-25T12:25:07.605Z,52.03
2018-03-25T12:26:45.171Z,52.01
2018-03-25T12:28:22.180Z,51.98
2018-03-25T12:29:59.995Z,51.94
2018-03-25T12:31:37.866Z,51.89
2018-03-25T12:33:15.649Z,51.85
2018-03-25T12:34:53.399Z,51.82
2018-03-25T12:36:31.381Z,51.80
2018-03-25T12:38:10.284Z,51.77
2018-03-25T12:39:48.377Z,51.75
2018-03-25T12:41:26.809Z,51.72
2018-03-25T12:43:03.833Z,51.71
2018-03-25T12:44:49.698Z,51.66
2018-03-25T12:46:28.171Z,51.60
2018-03-25T12:48:05.689Z,51.58
2018-03-25T12:49:45.410Z,51.54
2018-03-25T12:51:22.785Z,51.56
2018-03-25T12:53:01.099Z,51.54
2018-03-25T12:54:39.507Z,51.53
2018-03-25T12:56:17.699Z,51.50
2018-03-25T12:57:54.523Z,51.50
2018-03-25T12:59:32.054Z,51.50
2018-03-25T13:01:10.721Z,51.48
2018-03-25T13:02:48.508Z,51.47
2018-03-25T13:04:25.610Z,51.44
2018-03-25T13:06:03.983Z,51.41
2018-03-25T13:07:41.270Z,51.40
2018-03-25T13:09:18.935Z,51.37
2018-03-25T13:10:57.443Z,51.37
2018-03-25T13:12:36.649Z,51.38
2018-03-25T13:14:14.401Z,51.37
2018-03-25T13:15:53.350Z,51.34
2018-03-25T13:17:31.094Z,51.33
2018-03-25T13:19:08.481Z,51.29
2018-03-25T13:20:46.604Z,51.25
2018-03-25T13:22:23.948Z,51.20
2018-03-25T13:24:00.829Z,51.18
2018-03-25T13:25:38.828Z,51.14
2018-03-25T13:27:16.097Z,51.10
2018-03-25T13:28:54.367Z,51.09
2018-03-25T13:30:31.842Z,51.04
2018-03-25T13:32:09.787Z,51.02
2018-03-25T13:33:47.031Z,51.00
2018-03-25T13:35:24.156Z,50.99
2018-03-25T13:37:01.954Z,50.98
2018-03-25T13:38:41.460Z,50.98
2018-03-25T13:40:18.499Z,50.97
2018-03-25T13:41:56.557Z,50.96
2018-03-25T13:43:33.542Z,50.95
2018-03-25T13:45:12.055Z,50.92
2018-03-25T13:46:51.688Z,50.88
2018-03-25T13:48:28.924Z,50.86
2018-03-25T13:50:06.184Z,50.84
2018-03-25T13:51:44.852Z,50.80
2018-03-25T13:53:22.077Z,50.77
2018-03-25T13:54:59.897Z,50.75
2018-03-25T13:56:36.967Z,50.75
2018-03-25T13:58:14.416Z,50.73
2018-03-25T13:59:52.036Z,50.70
2018-03-25T14:01:30.341Z,50.66
2018-03-25T14:03:07.456Z,50.63
2018-03-25T14:04:45.080Z,50.60
2018-03-25T14:06:22.061Z,50.57
2018-03-25T14:07:59.111Z,50.54
2018-03-25T14:09:36.443Z,50.52
2018-03-25T14:11:14.009Z,50.49
2018-03-25T14:12:51.001Z,50.45
2018-03-25T14:14:28.951Z,50.43
2018-03-25T14:16:06.361Z,50.42
2018-03-25T14:17:44.663Z,50.43
2018-03-25T14:19:21.889Z,50.42
2018-03-25T14:20:59.041Z,50.41
2018-03-25T14:22:36.309Z,50.39
2018-03-25T14:24:14.866Z,50.36
2018-03-25T14:25:52.891Z,50.33
2018-03-25T14:27:30.639Z,50.30
2018-03-25T14:29:07.745Z,50.26
2018-03-25T14:30:45.776Z,50.22
2018-03-25T14:32:23.375Z,50.18
2018-03-25T14:34:00.572Z,50.17
2018-03-25T14:35:37.949Z,50.16
2018-03-25T14:37:15.439Z,50.16
2018-03-25T14:38:52.487Z,50.15
2018-03-25T14:40:29.650Z,50.13
2018-03-25T14:42:06.643Z,50.12
2018-03-25T14:43:45.111Z,50.07
2018-03-25T14:45:31.906Z,50.05
2018-03-25T14:47:10.880Z,50.02
2018-03-25T14:48:48.738Z,50.02
2018-03-25T14:50:26.292Z,50.01
2018-03-25T14:52:03.355Z,50.02
2018-03-25T14:53:41.023Z,49.99
2018-03-25T14:55:18.167Z,49.95
2018-03-25T14:56:55.649Z,49.91
2018-03-25T14:58:33.015Z,49.88
2018-03-25T15:00:10.361Z,49.85
2018-03-25T15:01:47.601Z,49.82
2018-03-25T15:03:25.141Z,49.80
2018-03-25T15:05:02.208Z,49.79
2018-03-25T15:06:42.204Z,49.75
2018-03-25T15:08:19.887Z,49.72
2018-03-25T15:09:57.132Z,49.68
2018-03-25T15:11:34.314Z,49.65
2018-03-25T15:13:11.418Z,49.63
2018-03-25T15:14:48.490Z,49.60
2018-03-25T15:16:25.844Z,49.57
2018-03-25T15:18:03.204Z,49.54
2018-03-25T15:19:40.766Z,49.54
2018-03-25T15:21:18.363Z,49.49
2018-03-25T15:23:01.107Z,49.47
2018-03-25T15:24:39.584Z,49.43
2018-03-25T15:26:18.849Z,49.38
2018-03-25T15:27:57.487Z,49.37
2018-03-25T15:29:34.544Z,49.37
2018-03-25T15:31:14.022Z,49.34
2018-03-25T15:32:53.561Z,49.31
2018-03-25T15:34:31.062Z,49.28
2018-03-25T15:37:42.441Z,49.22
2018-03-25T15:39:19.603Z,49.19
2018-03-25T15:40:56.852Z,49.18
2018-03-25T15:42:34.055Z,49.16
2018-03-25T15:44:11.048Z,49.14
2018-03-25T15:45:48.662Z,49.10
2018-03-25T15:47:25.724Z,49.07
2018-03-25T15:49:03.873Z,49.03
2018-03-25T15:50:41.707Z,49.03
2018-03-25T15:52:18.786Z,49.01
2018-03-25T15:53:55.955Z,48.98
2018-03-25T15:55:32.976Z,48.98
2018-03-25T15:57:10.112Z,48.95
2018-03-25T15:58:47.717Z,48.91
2018-03-25T16:00:26.591Z,48.88
2018-03-25T16:02:03.713Z,48.87
2018-03-25T16:03:41.168Z,48.84
2018-03-25T16:05:18.399Z,48.84
2018-03-25T16:06:55.533Z,48.82
2018-03-25T16:08:34.496Z,48.78
2018-03-25T16:10:11.505Z,48.76
2018-03-25T16:11:50.421Z,48.72
2018-03-25T16:13:27.669Z,48.69
2018-03-25T16:15:06.064Z,48.67
2018-03-25T16:16:43.791Z,48.65
2018-03-25T16:19:52.448Z,48.62
2018-03-25T16:21:31.611Z,48.59
2018-03-25T16:23:08.926Z,48.55
2018-03-25T16:24:46.786Z,48.53
2018-03-25T16:26:23.998Z,48.51
2018-03-25T16:28:01.153Z,48.50
2018-03-25T16:29:53.660Z,48.48
2018-03-25T16:31:31.477Z,48.46
2018-03-25T16:33:08.795Z,48.45
2018-03-25T16:34:47.506Z,48.44
2018-03-25T16:36:24.817Z,48.41
2018-03-25T16:38:02.746Z,48.41
2018-03-25T16:39:43.257Z,48.40
2018-03-25T16:42:55.518Z,48.39
2018-03-25T16:44:33.101Z,48.37
2018-03-25T16:46:10.870Z,48.36
2018-03-25T16:47:50.427Z,48.34
2018-03-25T16:49:29.013Z,48.33
2018-03-25T16:51:07.545Z,48.31
2018-03-25T16:52:46.532Z,48.27
2018-03-25T16:54:24.443Z,48.27
2018-03-25T16:56:02.736Z,48.26
2018-03-25T16:57:44.704Z,48.25
2018-03-25T16:59:22.688Z,48.21
2018-03-25T17:01:02.214Z,48.18
2018-03-25T17:02:40.669Z,48.15
2018-03-25T17:04:18.605Z,48.15
2018-03-25T17:07:45.312Z,48.10
2018-03-25T17:09:23.870Z,48.09
2018-03-25T17:11:02.081Z,48.10
2018-03-25T17:12:42.479Z,48.09
2018-03-25T17:14:30.201Z,48.09
2018-03-25T17:16:11.626Z,48.09
2018-03-25T17:17:49.899Z,48.07
2018-03-25T17:19:28.080Z,48.05
2018-03-25T17:21:10.312Z,48.04
2018-03-25T17:22:48.143Z,48.05
2018-03-25T17:24:25.911Z,48.04
2018-03-25T17:26:03.107Z,48.03
2018-03-25T17:27:41.841Z,48.02
2018-03-25T17:29:18.985Z,48.02
2018-03-25T17:30:58.352Z,47.98
2018-03-25T17:32:35.613Z,47.96
2018-03-25T17:34:12.793Z,47.94
2018-03-25T17:35:51.804Z,47.90
2018-03-25T17:37:35.803Z,47.90
2018-03-25T17:39:12.960Z,47.91
2018-03-25T17:40:50.258Z,47.89
2018-03-25T17:42:28.529Z,47.91
2018-03-25T17:44:06.943Z,47.90
2018-03-25T17:45:45.002Z,47.89
2018-03-25T17:47:23.420Z,47.87
2018-03-25T17:49:00.644Z,47.85
2018-03-25T17:50:38.542Z,47.85
2018-03-25T17:52:15.770Z,47.87
2018-03-25T17:53:53.773Z,47.87
2018-03-25T17:55:31.322Z,47.88
2018-03-25T17:57:08.886Z,47.83
2018-03-25T17:58:46.887Z,47.80
2018-03-25T18:00:26.863Z,47.78
2018-03-25T18:02:04.093Z,47.77
2018-03-25T18:03:42.481Z,47.75
2018-03-25T18:05:19.648Z,47.77
2018-03-25T18:06:56.843Z,47.76
2018-03-25T18:08:34.961Z,47.74
2018-03-25T18:10:13.000Z,47.72
2018-03-25T18:11:50.273Z,47.69
2018-03-25T18:13:27.603Z,47.67
2018-03-25T18:15:05.444Z,47.66
2018-03-25T18:16:43.473Z,47.64
2018-03-25T18:18:21.441Z,47.64
2018-03-25T18:19:58.835Z,47.63
2018-03-25T18:21:38.297Z,47.62
2018-03-25T18:23:15.831Z,47.59
2018-03-25T18:24:52.898Z,47.60
2018-03-25T18:26:30.153Z,47.60
2018-03-25T18:28:07.845Z,47.59
2018-03-25T18:29:45.662Z,47.59
2018-03-25T18:31:22.792Z,47.58
2018-03-25T18:33:00.015Z,47.54
2018-03-25T18:34:41.424Z,47.54
2018-03-25T18:36:18.880Z,47.50
2018-03-25T18:37:56.873Z,47.50
2018-03-25T18:39:34.427Z,47.50
2018-03-25T18:41:14.784Z,47.51
2018-03-25T18:42:52.373Z,47.53
2018-03-25T18:44:30.166Z,47.51
2018-03-25T18:46:09.078Z,47.51
2018-03-25T18:47:49.032Z,47.51
2018-03-25T18:49:26.526Z,47.49
2018-03-25T18:51:04.157Z,47.50
2018-03-25T18:52:44.240Z,47.49
2018-03-25T18:54:22.041Z,47.45
2018-03-25T18:55:59.231Z,47.46
2018-03-25T18:57:36.595Z,47.44
2018-03-25T18:59:13.644Z,47.41
2018-03-25T19:00:51.393Z,47.38
2018-03-25T19:02:28.883Z,47.37
2018-03-25T19:04:06.325Z,47.38
2018-03-25T19:05:44.628Z,47.36
2018-03-25T19:07:21.745Z,47.38
2018-03-25T19:08:59.461Z,47.37
2018-03-25T19:10:36.763Z,47.39
2018-03-25T19:12:15.359Z,47.38
2018-03-25T19:13:52.867Z,47.38
2018-03-25T19:15:30.870Z,47.37
2018-03-25T19:17:08.089Z,47.35
2018-03-25T19:18:46.183Z,47.34
2018-03-25T19:20:23.854Z,47.33
2018-03-25T19:22:00.977Z,47.32
2018-03-25T19:23:40.275Z,47.31
2018-03-25T19:25:18.280Z,47.28
2018-03-25T19:26:56.309Z,47.26
2018-03-25T19:28:35.376Z,47.27
2018-03-25T19:30:15.835Z,47.26
2018-03-25T19:32:01.511Z,47.27
2018-03-25T19:33:40.499Z,47.28
2018-03-25T19:35:19.456Z,47.28
2018-03-25T19:36:57.931Z,47.29
2018-03-25T19:38:35.138Z,47.31
2018-03-25T19:40:13.158Z,47.27
2018-03-25T19:41:53.083Z,47.29
2018-03-25T19:43:30.331Z,47.27
2018-03-25T19:45:07.812Z,47.29
2018-03-25T19:46:49.285Z,47.31
2018-03-25T19:48:27.776Z,47.32
2018-03-25T19:50:05.967Z,47.32
2018-03-25T19:51:46.741Z,47.32
2018-03-25T19:53:24.894Z,47.31
2018-03-25T19:55:02.891Z,47.32
2018-03-25T19:56:43.262Z,47.31
2018-03-25T19:58:21.111Z,47.30
2018-03-25T19:59:59.743Z,47.29
2018-03-25T20:01:38.275Z,47.31
2018-03-25T20:03:16.159Z,47.31
2018-03-25T20:04:55.190Z,47.33
2018-03-25T20:06:33.234Z,47.32
2018-03-25T20:08:11.021Z,47.32
2018-03-25T20:09:48.632Z,47.29
2018-03-25T20:11:26.296Z,47.25
2018-03-25T20:13:04.050Z,47.20
2018-03-25T20:14:42.414Z,47.16
2018-03-25T20:16:19.803Z,47.12
2018-03-25T20:17:56.771Z,47.10
2018-03-25T20:19:34.511Z,47.07
2018-03-25T20:21:11.593Z,47.04
2018-03-25T20:22:48.636Z,47.01
2018-03-25T20:24:26.144Z,46.99
2018-03-25T20:26:03.119Z,46.98
2018-03-25T20:27:39.954Z,46.96
2018-03-25T20:29:17.006Z,46.96
2018-03-25T20:30:54.691Z,46.98
2018-03-25T20:32:31.667Z,46.97
2018-03-25T20:34:08.789Z,46.96
2018-03-25T20:35:48.852Z,46.96
2018-03-25T20:37:26.389Z,46.96
2018-03-25T20:39:03.487Z,46.96
2018-03-25T20:40:42.269Z,46.95
2018-03-25T20:42:20.060Z,46.96
2018-03-25T20:43:57.427Z,46.96
2018-03-25T20:45:34.447Z,46.96
2018-03-25T20:47:11.537Z,46.95
2018-03-25T20:48:49.646Z,46.95
2018-03-25T20:50:27.629Z,46.94
2018-03-25T20:52:05.338Z,46.95
2018-03-25T20:53:45.806Z,46.94
2018-03-25T20:55:23.037Z,46.96
2018-03-25T20:57:01.213Z,46.97
2018-03-25T20:58:39.136Z,46.94
2018-03-25T21:00:18.471Z,46.93
2018-03-25T21:01:55.770Z,46.93
2018-03-25T21:03:33.363Z,46.92
2018-03-25T21:05:10.475Z,46.91
2018-03-25T21:06:48.685Z,46.89
2018-03-25T21:08:25.819Z,46.86
2018-03-25T21:10:03.432Z,46.83